sensor_id;sensor_type;location;lat;lon;timestamp;P1;durP1;ratioP1;P2;durP2;ratioP2
80836;SDS011;70251;60.008;30.404;2024-01-10T00:02:06;2.40;;;0.40;;
80836;SDS011;70251;60.008;30.404;2024-01-10T00:04:31;2.63;;;0.50;;
80836;SDS011;70251;60.008;30.404;2024-01-10T00:06:57;2.20;;;0.40;;
80836;SDS011;70251;60.008;30.404;2024-01-10T00:09:22;2.13;;;0.50;;
80836;SDS011;70251;60.008;30.404;2024-01-10T00:11:48;2.33;;;0.50;;
80836;SDS011;70251;60.008;30.404;2024-01-10T00:14:14;2.75;;;0.57;;
80836;SDS011;70251;60.008;30.404;2024-01-10T00:16:39;1.67;;;0.50;;
80836;SDS011;70251;60.008;30.404;2024-01-10T00:19:05;2.70;;;0.60;;
80836;SDS011;70251;60.008;30.404;2024-01-10T00:21:30;3.23;;;0.60;;
80836;SDS011;70251;60.008;30.404;2024-01-10T00:23:56;2.00;;;0.55;;
80836;SDS011;70251;60.008;30.404;2024-01-10T00:26:22;2.23;;;0.50;;
80836;SDS011;70251;60.008;30.404;2024-01-10T00:28:48;2.17;;;0.43;;
80836;SDS011;70251;60.008;30.404;2024-01-10T00:31:14;2.35;;;0.50;;
80836;SDS011;70251;60.008;30.404;2024-01-10T00:33:40;2.23;;;0.50;;
80836;SDS011;70251;60.008;30.404;2024-01-10T00:36:06;2.13;;;0.43;;
80836;SDS011;70251;60.008;30.404;2024-01-10T00:38:32;2.67;;;0.60;;
80836;SDS011;70251;60.008;30.404;2024-01-10T00:40:58;1.93;;;0.40;;
80836;SDS011;70251;60.008;30.404;2024-01-10T00:43:24;2.38;;;0.57;;
80836;SDS011;70251;60.008;30.404;2024-01-10T00:45:50;2.38;;;0.50;;
80836;SDS011;70251;60.008;30.404;2024-01-10T00:48:15;2.40;;;0.50;;
80836;SDS011;70251;60.008;30.404;2024-01-10T00:50:42;1.93;;;0.50;;
80836;SDS011;70251;60.008;30.404;2024-01-10T00:53:09;2.67;;;0.40;;
80836;SDS011;70251;60.008;30.404;2024-01-10T00:55:35;2.10;;;0.40;;
80836;SDS011;70251;60.008;30.404;2024-01-10T00:58:01;2.10;;;0.30;;
80836;SDS011;70251;60.008;30.404;2024-01-10T01:00:27;1.67;;;0.40;;
80836;SDS011;70251;60.008;30.404;2024-01-10T01:02:53;2.03;;;0.35;;
80836;SDS011;70251;60.008;30.404;2024-01-10T01:05:18;3.10;;;0.50;;
80836;SDS011;70251;60.008;30.404;2024-01-10T01:07:44;1.92;;;0.43;;
80836;SDS011;70251;60.008;30.404;2024-01-10T01:10:09;1.40;;;0.27;;
80836;SDS011;70251;60.008;30.404;2024-01-10T01:12:35;1.65;;;0.32;;
80836;SDS011;70251;60.008;30.404;2024-01-10T01:15:01;1.83;;;0.37;;
80836;SDS011;70251;60.008;30.404;2024-01-10T01:17:27;2.20;;;0.50;;
80836;SDS011;70251;60.008;30.404;2024-01-10T01:19:53;1.83;;;0.40;;
80836;SDS011;70251;60.008;30.404;2024-01-10T01:22:18;2.70;;;0.43;;
80836;SDS011;70251;60.008;30.404;2024-01-10T01:24:44;1.88;;;0.50;;
80836;SDS011;70251;60.008;30.404;2024-01-10T01:27:09;2.53;;;0.80;;
80836;SDS011;70251;60.008;30.404;2024-01-10T01:29:35;2.50;;;0.50;;
80836;SDS011;70251;60.008;30.404;2024-01-10T01:32:01;2.77;;;0.50;;
80836;SDS011;70251;60.008;30.404;2024-01-10T01:34:26;2.77;;;0.50;;
80836;SDS011;70251;60.008;30.404;2024-01-10T01:36:52;2.50;;;0.50;;
80836;SDS011;70251;60.008;30.404;2024-01-10T01:39:18;1.90;;;0.43;;
80836;SDS011;70251;60.008;30.404;2024-01-10T01:41:47;2.03;;;0.35;;
80836;SDS011;70251;60.008;30.404;2024-01-10T01:44:13;2.30;;;0.30;;
80836;SDS011;70251;60.008;30.404;2024-01-10T01:46:39;2.90;;;0.40;;
80836;SDS011;70251;60.008;30.404;2024-01-10T01:49:06;2.30;;;0.22;;
80836;SDS011;70251;60.008;30.404;2024-01-10T01:51:33;1.67;;;0.22;;
80836;SDS011;70251;60.008;30.404;2024-01-10T01:54:02;1.07;;;0.23;;
80836;SDS011;70251;60.008;30.404;2024-01-10T01:56:32;2.05;;;0.20;;
80836;SDS011;70251;60.008;30.404;2024-01-10T01:58:57;1.25;;;0.20;;
80836;SDS011;70251;60.008;30.404;2024-01-10T02:01:23;2.53;;;0.40;;
80836;SDS011;70251;60.008;30.404;2024-01-10T02:03:49;3.97;;;0.22;;
80836;SDS011;70251;60.008;30.404;2024-01-10T02:06:15;0.50;;;0.10;;
80836;SDS011;70251;60.008;30.404;2024-01-10T02:08:40;1.17;;;0.10;;
80836;SDS011;70251;60.008;30.404;2024-01-10T02:11:06;1.03;;;0.13;;
80836;SDS011;70251;60.008;30.404;2024-01-10T02:13:32;0.82;;;0.10;;
80836;SDS011;70251;60.008;30.404;2024-01-10T02:15:59;0.63;;;0.10;;
80836;SDS011;70251;60.008;30.404;2024-01-10T02:18:25;0.63;;;0.10;;
80836;SDS011;70251;60.008;30.404;2024-01-10T02:20:51;0.77;;;0.10;;
80836;SDS011;70251;60.008;30.404;2024-01-10T02:23:19;1.25;;;0.10;;
80836;SDS011;70251;60.008;30.404;2024-01-10T02:25:44;0.63;;;0.10;;
80836;SDS011;70251;60.008;30.404;2024-01-10T02:28:10;0.70;;;0.00;;
80836;SDS011;70251;60.008;30.404;2024-01-10T02:30:36;0.70;;;0.10;;
80836;SDS011;70251;60.008;30.404;2024-01-10T02:33:03;0.82;;;0.10;;
80836;SDS011;70251;60.008;30.404;2024-01-10T02:35:29;0.80;;;0.00;;
80836;SDS011;70251;60.008;30.404;2024-01-10T02:37:58;1.70;;;0.10;;
80836;SDS011;70251;60.008;30.404;2024-01-10T02:40:24;0.65;;;0.00;;
80836;SDS011;70251;60.008;30.404;2024-01-10T02:42:50;1.20;;;0.10;;
80836;SDS011;70251;60.008;30.404;2024-01-10T02:45:16;1.05;;;0.10;;
80836;SDS011;70251;60.008;30.404;2024-01-10T02:47:42;1.55;;;0.10;;
80836;SDS011;70251;60.008;30.404;2024-01-10T02:50:08;1.58;;;0.10;;
80836;SDS011;70251;60.008;30.404;2024-01-10T02:52:34;1.07;;;0.07;;
80836;SDS011;70251;60.008;30.404;2024-01-10T02:55:00;1.20;;;0.10;;
80836;SDS011;70251;60.008;30.404;2024-01-10T02:57:25;0.40;;;0.10;;
80836;SDS011;70251;60.008;30.404;2024-01-10T02:59:51;0.63;;;0.00;;
80836;SDS011;70251;60.008;30.404;2024-01-10T03:02:17;1.03;;;0.10;;
80836;SDS011;70251;60.008;30.404;2024-01-10T03:04:43;1.50;;;0.10;;
80836;SDS011;70251;60.008;30.404;2024-01-10T03:07:09;0.43;;;0.00;;
80836;SDS011;70251;60.008;30.404;2024-01-10T03:09:35;1.85;;;0.10;;
80836;SDS011;70251;60.008;30.404;2024-01-10T03:12:01;2.17;;;0.20;;
80836;SDS011;70251;60.008;30.404;2024-01-10T03:14:27;1.85;;;0.15;;
80836;SDS011;70251;60.008;30.404;2024-01-10T03:16:52;1.53;;;0.20;;
80836;SDS011;70251;60.008;30.404;2024-01-10T03:19:18;0.88;;;0.00;;
80836;SDS011;70251;60.008;30.404;2024-01-10T03:21:44;1.08;;;0.10;;
80836;SDS011;70251;60.008;30.404;2024-01-10T03:24:10;2.07;;;0.20;;
80836;SDS011;70251;60.008;30.404;2024-01-10T03:26:35;0.93;;;0.10;;
80836;SDS011;70251;60.008;30.404;2024-01-10T03:29:01;1.05;;;0.10;;
80836;SDS011;70251;60.008;30.404;2024-01-10T03:31:27;1.90;;;0.30;;
80836;SDS011;70251;60.008;30.404;2024-01-10T03:33:58;0.82;;;0.10;;
80836;SDS011;70251;60.008;30.404;2024-01-10T03:36:24;1.67;;;0.10;;
80836;SDS011;70251;60.008;30.404;2024-01-10T03:38:50;1.08;;;0.10;;
80836;SDS011;70251;60.008;30.404;2024-01-10T03:41:19;0.77;;;0.00;;
80836;SDS011;70251;60.008;30.404;2024-01-10T03:43:45;1.10;;;0.10;;
80836;SDS011;70251;60.008;30.404;2024-01-10T03:46:12;1.35;;;0.13;;
80836;SDS011;70251;60.008;30.404;2024-01-10T03:48:38;1.10;;;0.10;;
80836;SDS011;70251;60.008;30.404;2024-01-10T03:51:13;0.82;;;0.15;;
80836;SDS011;70251;60.008;30.404;2024-01-10T03:53:39;3.00;;;0.20;;
80836;SDS011;70251;60.008;30.404;2024-01-10T03:56:05;0.40;;;0.10;;
80836;SDS011;70251;60.008;30.404;2024-01-10T03:58:30;1.25;;;0.08;;
80836;SDS011;70251;60.008;30.404;2024-01-10T04:00:56;1.30;;;0.10;;
80836;SDS011;70251;60.008;30.404;2024-01-10T04:03:22;1.27;;;0.10;;
80836;SDS011;70251;60.008;30.404;2024-01-10T04:05:47;1.33;;;0.10;;
80836;SDS011;70251;60.008;30.404;2024-01-10T04:08:13;2.53;;;0.30;;
80836;SDS011;70251;60.008;30.404;2024-01-10T04:10:38;1.57;;;0.17;;
80836;SDS011;70251;60.008;30.404;2024-01-10T04:13:04;1.40;;;0.13;;
80836;SDS011;70251;60.008;30.404;2024-01-10T04:15:29;1.73;;;0.20;;
80836;SDS011;70251;60.008;30.404;2024-01-10T04:17:55;1.52;;;0.22;;
80836;SDS011;70251;60.008;30.404;2024-01-10T04:20:21;1.90;;;0.20;;
80836;SDS011;70251;60.008;30.404;2024-01-10T04:22:46;1.52;;;0.20;;
80836;SDS011;70251;60.008;30.404;2024-01-10T04:25:12;1.00;;;0.30;;
80836;SDS011;70251;60.008;30.404;2024-01-10T04:27:38;1.45;;;0.15;;
80836;SDS011;70251;60.008;30.404;2024-01-10T04:30:04;2.30;;;0.47;;
80836;SDS011;70251;60.008;30.404;2024-01-10T04:32:31;0.60;;;0.10;;
80836;SDS011;70251;60.008;30.404;2024-01-10T04:34:56;1.30;;;0.20;;
80836;SDS011;70251;60.008;30.404;2024-01-10T04:37:22;1.30;;;0.20;;
80836;SDS011;70251;60.008;30.404;2024-01-10T04:39:47;1.87;;;0.10;;
80836;SDS011;70251;60.008;30.404;2024-01-10T04:42:13;1.25;;;0.10;;
80836;SDS011;70251;60.008;30.404;2024-01-10T04:44:39;2.27;;;0.30;;
80836;SDS011;70251;60.008;30.404;2024-01-10T04:47:05;1.00;;;0.20;;
80836;SDS011;70251;60.008;30.404;2024-01-10T04:49:32;1.30;;;0.10;;
80836;SDS011;70251;60.008;30.404;2024-01-10T04:51:58;1.97;;;0.20;;
80836;SDS011;70251;60.008;30.404;2024-01-10T04:54:24;1.98;;;0.20;;
80836;SDS011;70251;60.008;30.404;2024-01-10T04:56:49;1.73;;;0.30;;
80836;SDS011;70251;60.008;30.404;2024-01-10T04:59:15;1.07;;;0.20;;
80836;SDS011;70251;60.008;30.404;2024-01-10T05:01:41;2.88;;;0.52;;
80836;SDS011;70251;60.008;30.404;2024-01-10T05:04:06;2.90;;;0.40;;
80836;SDS011;70251;60.008;30.404;2024-01-10T05:06:32;1.60;;;0.30;;
80836;SDS011;70251;60.008;30.404;2024-01-10T05:08:58;3.25;;;0.30;;
80836;SDS011;70251;60.008;30.404;2024-01-10T05:11:24;2.83;;;0.30;;
80836;SDS011;70251;60.008;30.404;2024-01-10T05:13:54;1.63;;;0.30;;
80836;SDS011;70251;60.008;30.404;2024-01-10T05:16:19;2.00;;;0.25;;
80836;SDS011;70251;60.008;30.404;2024-01-10T05:18:45;1.53;;;0.27;;
80836;SDS011;70251;60.008;30.404;2024-01-10T05:21:11;2.70;;;0.30;;
80836;SDS011;70251;60.008;30.404;2024-01-10T05:23:37;5.53;;;0.60;;
80836;SDS011;70251;60.008;30.404;2024-01-10T05:26:04;4.13;;;0.73;;
80836;SDS011;70251;60.008;30.404;2024-01-10T05:28:30;2.08;;;0.28;;
80836;SDS011;70251;60.008;30.404;2024-01-10T05:30:56;3.00;;;0.30;;
80836;SDS011;70251;60.008;30.404;2024-01-10T05:33:23;3.60;;;0.40;;
80836;SDS011;70251;60.008;30.404;2024-01-10T05:35:48;2.53;;;0.30;;
80836;SDS011;70251;60.008;30.404;2024-01-10T05:38:14;3.53;;;0.40;;
80836;SDS011;70251;60.008;30.404;2024-01-10T05:40:40;2.53;;;0.50;;
80836;SDS011;70251;60.008;30.404;2024-01-10T05:43:05;2.20;;;0.33;;
80836;SDS011;70251;60.008;30.404;2024-01-10T05:45:32;3.40;;;0.40;;
80836;SDS011;70251;60.008;30.404;2024-01-10T05:47:58;3.22;;;0.40;;
80836;SDS011;70251;60.008;30.404;2024-01-10T05:50:24;4.03;;;0.50;;
80836;SDS011;70251;60.008;30.404;2024-01-10T05:52:50;1.47;;;0.20;;
80836;SDS011;70251;60.008;30.404;2024-01-10T05:55:16;2.42;;;0.30;;
80836;SDS011;70251;60.008;30.404;2024-01-10T05:57:41;1.83;;;0.20;;
80836;SDS011;70251;60.008;30.404;2024-01-10T06:00:07;1.98;;;0.40;;
80836;SDS011;70251;60.008;30.404;2024-01-10T06:02:37;4.38;;;0.55;;
80836;SDS011;70251;60.008;30.404;2024-01-10T06:05:10;3.15;;;0.32;;
80836;SDS011;70251;60.008;30.404;2024-01-10T06:07:37;3.40;;;0.50;;
80836;SDS011;70251;60.008;30.404;2024-01-10T06:10:03;2.35;;;0.38;;
80836;SDS011;70251;60.008;30.404;2024-01-10T06:12:30;2.30;;;0.30;;
80836;SDS011;70251;60.008;30.404;2024-01-10T06:14:55;2.15;;;0.40;;
80836;SDS011;70251;60.008;30.404;2024-01-10T06:17:21;3.30;;;0.40;;
80836;SDS011;70251;60.008;30.404;2024-01-10T06:19:47;2.72;;;0.50;;
80836;SDS011;70251;60.008;30.404;2024-01-10T06:22:12;2.73;;;0.50;;
80836;SDS011;70251;60.008;30.404;2024-01-10T06:24:38;3.20;;;0.63;;
80836;SDS011;70251;60.008;30.404;2024-01-10T06:27:04;4.00;;;0.70;;
80836;SDS011;70251;60.008;30.404;2024-01-10T06:29:31;4.60;;;0.80;;
80836;SDS011;70251;60.008;30.404;2024-01-10T06:31:57;2.97;;;0.40;;
80836;SDS011;70251;60.008;30.404;2024-01-10T06:34:23;1.90;;;0.38;;
80836;SDS011;70251;60.008;30.404;2024-01-10T06:36:49;3.40;;;0.60;;
80836;SDS011;70251;60.008;30.404;2024-01-10T06:39:15;2.97;;;0.65;;
80836;SDS011;70251;60.008;30.404;2024-01-10T06:41:42;2.80;;;0.60;;
80836;SDS011;70251;60.008;30.404;2024-01-10T06:44:07;2.60;;;0.40;;
80836;SDS011;70251;60.008;30.404;2024-01-10T06:46:35;3.30;;;0.60;;
80836;SDS011;70251;60.008;30.404;2024-01-10T06:49:01;3.00;;;0.55;;
80836;SDS011;70251;60.008;30.404;2024-01-10T06:51:27;5.43;;;1.20;;
80836;SDS011;70251;60.008;30.404;2024-01-10T06:53:53;4.30;;;0.82;;
80836;SDS011;70251;60.008;30.404;2024-01-10T06:56:25;4.83;;;0.93;;
80836;SDS011;70251;60.008;30.404;2024-01-10T06:58:51;5.72;;;1.23;;
80836;SDS011;70251;60.008;30.404;2024-01-10T07:01:16;3.70;;;0.90;;
80836;SDS011;70251;60.008;30.404;2024-01-10T07:03:42;4.63;;;1.10;;
80836;SDS011;70251;60.008;30.404;2024-01-10T07:06:09;4.22;;;1.10;;
80836;SDS011;70251;60.008;30.404;2024-01-10T07:08:40;3.10;;;0.60;;
80836;SDS011;70251;60.008;30.404;2024-01-10T07:11:07;4.15;;;0.98;;
80836;SDS011;70251;60.008;30.404;2024-01-10T07:13:34;4.55;;;0.70;;
80836;SDS011;70251;60.008;30.404;2024-01-10T07:16:00;5.50;;;1.23;;
80836;SDS011;70251;60.008;30.404;2024-01-10T07:18:29;4.50;;;1.30;;
80836;SDS011;70251;60.008;30.404;2024-01-10T07:20:54;4.40;;;1.20;;
80836;SDS011;70251;60.008;30.404;2024-01-10T07:23:20;3.10;;;0.70;;
80836;SDS011;70251;60.008;30.404;2024-01-10T07:25:46;4.83;;;1.27;;
80836;SDS011;70251;60.008;30.404;2024-01-10T07:28:11;5.93;;;1.27;;
80836;SDS011;70251;60.008;30.404;2024-01-10T07:30:37;3.90;;;1.03;;
80836;SDS011;70251;60.008;30.404;2024-01-10T07:33:03;5.73;;;1.30;;
80836;SDS011;70251;60.008;30.404;2024-01-10T07:35:28;5.47;;;1.23;;
80836;SDS011;70251;60.008;30.404;2024-01-10T07:37:55;4.32;;;0.95;;
80836;SDS011;70251;60.008;30.404;2024-01-10T07:40:21;7.03;;;1.87;;
80836;SDS011;70251;60.008;30.404;2024-01-10T07:42:47;6.30;;;2.35;;
80836;SDS011;70251;60.008;30.404;2024-01-10T07:45:13;3.05;;;0.70;;
80836;SDS011;70251;60.008;30.404;2024-01-10T07:47:39;5.63;;;1.80;;
80836;SDS011;70251;60.008;30.404;2024-01-10T07:50:08;3.92;;;1.08;;
80836;SDS011;70251;60.008;30.404;2024-01-10T07:52:35;5.33;;;1.80;;
80836;SDS011;70251;60.008;30.404;2024-01-10T07:55:01;2.67;;;0.68;;
80836;SDS011;70251;60.008;30.404;2024-01-10T07:57:30;7.10;;;1.98;;
80836;SDS011;70251;60.008;30.404;2024-01-10T07:59:56;5.22;;;0.82;;
80836;SDS011;70251;60.008;30.404;2024-01-10T08:02:22;5.20;;;1.53;;
80836;SDS011;70251;60.008;30.404;2024-01-10T08:04:48;5.55;;;1.80;;
80836;SDS011;70251;60.008;30.404;2024-01-10T08:07:13;8.80;;;1.50;;
80836;SDS011;70251;60.008;30.404;2024-01-10T08:09:39;5.72;;;1.90;;
80836;SDS011;70251;60.008;30.404;2024-01-10T08:12:05;3.55;;;0.95;;
80836;SDS011;70251;60.008;30.404;2024-01-10T08:14:32;6.17;;;2.10;;
80836;SDS011;70251;60.008;30.404;2024-01-10T08:16:57;8.27;;;2.42;;
80836;SDS011;70251;60.008;30.404;2024-01-10T08:19:24;8.50;;;2.77;;
80836;SDS011;70251;60.008;30.404;2024-01-10T08:21:51;7.47;;;2.90;;
80836;SDS011;70251;60.008;30.404;2024-01-10T08:24:18;4.68;;;1.60;;
80836;SDS011;70251;60.008;30.404;2024-01-10T08:26:44;5.07;;;1.40;;
80836;SDS011;70251;60.008;30.404;2024-01-10T08:29:10;7.50;;;1.90;;
80836;SDS011;70251;60.008;30.404;2024-01-10T08:31:35;6.80;;;2.17;;
80836;SDS011;70251;60.008;30.404;2024-01-10T08:34:01;6.47;;;2.45;;
80836;SDS011;70251;60.008;30.404;2024-01-10T08:36:28;6.93;;;2.38;;
80836;SDS011;70251;60.008;30.404;2024-01-10T08:38:53;7.17;;;1.73;;
80836;SDS011;70251;60.008;30.404;2024-01-10T08:41:19;6.43;;;1.90;;
80836;SDS011;70251;60.008;30.404;2024-01-10T08:43:46;6.13;;;1.63;;
80836;SDS011;70251;60.008;30.404;2024-01-10T08:46:12;7.35;;;2.30;;
80836;SDS011;70251;60.008;30.404;2024-01-10T08:48:37;6.13;;;1.83;;
80836;SDS011;70251;60.008;30.404;2024-01-10T08:51:03;8.00;;;3.30;;
80836;SDS011;70251;60.008;30.404;2024-01-10T08:53:29;9.38;;;3.35;;
80836;SDS011;70251;60.008;30.404;2024-01-10T08:55:54;10.77;;;3.93;;
80836;SDS011;70251;60.008;30.404;2024-01-10T08:58:20;10.17;;;3.70;;
80836;SDS011;70251;60.008;30.404;2024-01-10T09:00:46;10.27;;;3.83;;
80836;SDS011;70251;60.008;30.404;2024-01-10T09:03:11;8.80;;;3.73;;
80836;SDS011;70251;60.008;30.404;2024-01-10T09:05:37;9.77;;;4.15;;
80836;SDS011;70251;60.008;30.404;2024-01-10T09:08:03;7.07;;;2.73;;
80836;SDS011;70251;60.008;30.404;2024-01-10T09:10:29;11.00;;;4.85;;
80836;SDS011;70251;60.008;30.404;2024-01-10T09:12:55;7.03;;;2.87;;
80836;SDS011;70251;60.008;30.404;2024-01-10T09:15:21;9.07;;;4.00;;
80836;SDS011;70251;60.008;30.404;2024-01-10T09:17:46;10.03;;;3.50;;
80836;SDS011;70251;60.008;30.404;2024-01-10T09:20:12;9.07;;;3.28;;
80836;SDS011;70251;60.008;30.404;2024-01-10T09:22:38;9.93;;;3.77;;
80836;SDS011;70251;60.008;30.404;2024-01-10T09:25:05;10.77;;;3.63;;
80836;SDS011;70251;60.008;30.404;2024-01-10T09:27:32;8.20;;;3.33;;
80836;SDS011;70251;60.008;30.404;2024-01-10T09:30:02;7.65;;;3.53;;
80836;SDS011;70251;60.008;30.404;2024-01-10T09:32:31;4.38;;;1.48;;
80836;SDS011;70251;60.008;30.404;2024-01-10T09:34:57;8.90;;;2.93;;
80836;SDS011;70251;60.008;30.404;2024-01-10T09:37:23;9.65;;;3.28;;
80836;SDS011;70251;60.008;30.404;2024-01-10T09:39:49;7.90;;;2.80;;
80836;SDS011;70251;60.008;30.404;2024-01-10T09:42:14;10.82;;;3.35;;
80836;SDS011;70251;60.008;30.404;2024-01-10T09:44:40;9.50;;;3.80;;
80836;SDS011;70251;60.008;30.404;2024-01-10T09:47:07;9.07;;;3.47;;
80836;SDS011;70251;60.008;30.404;2024-01-10T09:49:34;10.40;;;3.00;;
80836;SDS011;70251;60.008;30.404;2024-01-10T09:52:02;9.07;;;3.00;;
80836;SDS011;70251;60.008;30.404;2024-01-10T09:54:30;7.20;;;2.95;;
80836;SDS011;70251;60.008;30.404;2024-01-10T09:56:59;7.28;;;2.63;;
80836;SDS011;70251;60.008;30.404;2024-01-10T09:59:25;6.85;;;2.72;;
80836;SDS011;70251;60.008;30.404;2024-01-10T10:01:54;7.90;;;2.23;;
80836;SDS011;70251;60.008;30.404;2024-01-10T10:04:22;8.82;;;3.00;;
80836;SDS011;70251;60.008;30.404;2024-01-10T10:07:01;7.72;;;2.40;;
80836;SDS011;70251;60.008;30.404;2024-01-10T10:09:28;5.70;;;1.73;;
80836;SDS011;70251;60.008;30.404;2024-01-10T10:11:55;7.10;;;2.50;;
80836;SDS011;70251;60.008;30.404;2024-01-10T10:14:22;9.65;;;3.22;;
80836;SDS011;70251;60.008;30.404;2024-01-10T10:16:51;6.30;;;2.05;;
80836;SDS011;70251;60.008;30.404;2024-01-10T10:19:26;6.90;;;2.38;;
80836;SDS011;70251;60.008;30.404;2024-01-10T10:21:52;6.28;;;1.98;;
80836;SDS011;70251;60.008;30.404;2024-01-10T10:24:17;9.17;;;2.27;;
80836;SDS011;70251;60.008;30.404;2024-01-10T10:26:43;8.00;;;2.10;;
80836;SDS011;70251;60.008;30.404;2024-01-10T10:29:09;8.43;;;2.53;;
80836;SDS011;70251;60.008;30.404;2024-01-10T10:31:35;7.72;;;2.83;;
80836;SDS011;70251;60.008;30.404;2024-01-10T10:34:01;7.83;;;2.67;;
80836;SDS011;70251;60.008;30.404;2024-01-10T10:36:29;6.68;;;2.58;;
80836;SDS011;70251;60.008;30.404;2024-01-10T10:38:58;8.60;;;2.40;;
80836;SDS011;70251;60.008;30.404;2024-01-10T10:41:27;6.63;;;2.30;;
80836;SDS011;70251;60.008;30.404;2024-01-10T10:43:56;8.48;;;2.90;;
80836;SDS011;70251;60.008;30.404;2024-01-10T10:46:23;6.83;;;2.50;;
80836;SDS011;70251;60.008;30.404;2024-01-10T10:48:52;6.93;;;2.60;;
80836;SDS011;70251;60.008;30.404;2024-01-10T10:51:23;8.32;;;2.40;;
80836;SDS011;70251;60.008;30.404;2024-01-10T10:53:59;8.35;;;2.88;;
80836;SDS011;70251;60.008;30.404;2024-01-10T10:56:26;7.18;;;2.42;;
80836;SDS011;70251;60.008;30.404;2024-01-10T10:58:58;11.37;;;2.87;;
80836;SDS011;70251;60.008;30.404;2024-01-10T11:01:26;7.50;;;2.50;;
80836;SDS011;70251;60.008;30.404;2024-01-10T11:03:58;12.43;;;4.50;;
80836;SDS011;70251;60.008;30.404;2024-01-10T11:06:24;11.75;;;3.85;;
80836;SDS011;70251;60.008;30.404;2024-01-10T11:08:53;10.13;;;3.30;;
80836;SDS011;70251;60.008;30.404;2024-01-10T11:20:13;11.20;;;4.03;;
80836;SDS011;70251;60.008;30.404;2024-01-10T11:23:07;8.80;;;2.80;;
80836;SDS011;70251;60.008;30.404;2024-01-10T11:25:58;12.70;;;3.28;;
80836;SDS011;70251;60.008;30.404;2024-01-10T11:28:28;12.50;;;4.43;;
80836;SDS011;70251;60.008;30.404;2024-01-10T11:30:56;9.55;;;4.05;;
80836;SDS011;70251;60.008;30.404;2024-01-10T11:33:22;12.57;;;4.30;;
80836;SDS011;70251;60.008;30.404;2024-01-10T11:38:44;14.30;;;5.60;;
80836;SDS011;70251;60.008;30.404;2024-01-10T11:41:19;13.65;;;5.07;;
80836;SDS011;70251;60.008;30.404;2024-01-10T11:46:45;10.70;;;4.10;;
80836;SDS011;70251;60.008;30.404;2024-01-10T11:49:13;13.35;;;4.07;;
80836;SDS011;70251;60.008;30.404;2024-01-10T11:51:50;11.43;;;4.18;;
80836;SDS011;70251;60.008;30.404;2024-01-10T11:54:37;10.52;;;4.20;;
80836;SDS011;70251;60.008;30.404;2024-01-10T11:57:08;14.30;;;4.72;;
80836;SDS011;70251;60.008;30.404;2024-01-10T11:59:34;11.20;;;4.17;;
80836;SDS011;70251;60.008;30.404;2024-01-10T12:02:00;12.65;;;3.78;;
80836;SDS011;70251;60.008;30.404;2024-01-10T12:04:29;16.73;;;4.97;;
80836;SDS011;70251;60.008;30.404;2024-01-10T12:06:57;14.25;;;5.68;;
80836;SDS011;70251;60.008;30.404;2024-01-10T12:09:23;15.43;;;5.07;;
80836;SDS011;70251;60.008;30.404;2024-01-10T12:11:50;16.17;;;4.10;;
80836;SDS011;70251;60.008;30.404;2024-01-10T12:14:16;11.65;;;4.82;;
80836;SDS011;70251;60.008;30.404;2024-01-10T12:16:42;11.18;;;4.70;;
80836;SDS011;70251;60.008;30.404;2024-01-10T12:19:08;11.20;;;4.73;;
80836;SDS011;70251;60.008;30.404;2024-01-10T12:21:33;12.93;;;4.67;;
80836;SDS011;70251;60.008;30.404;2024-01-10T12:23:59;11.20;;;4.63;;
80836;SDS011;70251;60.008;30.404;2024-01-10T12:26:24;10.53;;;3.73;;
80836;SDS011;70251;60.008;30.404;2024-01-10T12:28:56;15.07;;;4.20;;
80836;SDS011;70251;60.008;30.404;2024-01-10T12:31:24;11.90;;;4.10;;
80836;SDS011;70251;60.008;30.404;2024-01-10T12:33:54;11.52;;;3.90;;
80836;SDS011;70251;60.008;30.404;2024-01-10T12:36:20;11.27;;;3.80;;
80836;SDS011;70251;60.008;30.404;2024-01-10T12:38:46;12.63;;;3.90;;
80836;SDS011;70251;60.008;30.404;2024-01-10T12:41:14;11.15;;;3.60;;
80836;SDS011;70251;60.008;30.404;2024-01-10T12:43:40;7.33;;;2.47;;
80836;SDS011;70251;60.008;30.404;2024-01-10T12:46:06;9.90;;;3.10;;
80836;SDS011;70251;60.008;30.404;2024-01-10T12:48:36;7.80;;;2.85;;
80836;SDS011;70251;60.008;30.404;2024-01-10T12:51:07;9.43;;;3.05;;
80836;SDS011;70251;60.008;30.404;2024-01-10T12:53:37;11.15;;;3.38;;
80836;SDS011;70251;60.008;30.404;2024-01-10T12:56:04;7.70;;;2.80;;
80836;SDS011;70251;60.008;30.404;2024-01-10T12:58:31;9.93;;;3.70;;
80836;SDS011;70251;60.008;30.404;2024-01-10T13:00:58;8.25;;;2.60;;
80836;SDS011;70251;60.008;30.404;2024-01-10T13:03:23;8.77;;;2.63;;
80836;SDS011;70251;60.008;30.404;2024-01-10T13:05:52;8.47;;;2.73;;
80836;SDS011;70251;60.008;30.404;2024-01-10T13:08:18;7.50;;;2.60;;
80836;SDS011;70251;60.008;30.404;2024-01-10T13:10:45;9.10;;;2.35;;
80836;SDS011;70251;60.008;30.404;2024-01-10T13:13:12;4.97;;;1.48;;
80836;SDS011;70251;60.008;30.404;2024-01-10T13:15:39;6.50;;;2.13;;
80836;SDS011;70251;60.008;30.404;2024-01-10T13:18:05;7.83;;;2.07;;
80836;SDS011;70251;60.008;30.404;2024-01-10T13:20:31;9.30;;;2.67;;
80836;SDS011;70251;60.008;30.404;2024-01-10T13:22:57;8.40;;;2.87;;
80836;SDS011;70251;60.008;30.404;2024-01-10T13:25:23;9.18;;;3.25;;
80836;SDS011;70251;60.008;30.404;2024-01-10T13:27:51;9.13;;;3.00;;
80836;SDS011;70251;60.008;30.404;2024-01-10T13:30:17;7.47;;;2.05;;
80836;SDS011;70251;60.008;30.404;2024-01-10T13:32:44;8.35;;;2.38;;
80836;SDS011;70251;60.008;30.404;2024-01-10T13:35:12;7.20;;;2.20;;
80836;SDS011;70251;60.008;30.404;2024-01-10T13:37:39;9.73;;;1.88;;
80836;SDS011;70251;60.008;30.404;2024-01-10T13:40:08;7.10;;;2.30;;
80836;SDS011;70251;60.008;30.404;2024-01-10T13:42:35;6.30;;;2.05;;
80836;SDS011;70251;60.008;30.404;2024-01-10T13:45:04;6.40;;;1.70;;
80836;SDS011;70251;60.008;30.404;2024-01-10T13:47:30;3.45;;;0.85;;
80836;SDS011;70251;60.008;30.404;2024-01-10T13:49:58;5.05;;;1.48;;
80836;SDS011;70251;60.008;30.404;2024-01-10T13:52:24;4.63;;;1.30;;
80836;SDS011;70251;60.008;30.404;2024-01-10T13:54:49;3.80;;;0.93;;
80836;SDS011;70251;60.008;30.404;2024-01-10T13:57:15;4.37;;;0.90;;
80836;SDS011;70251;60.008;30.404;2024-01-10T13:59:40;4.93;;;1.20;;
80836;SDS011;70251;60.008;30.404;2024-01-10T14:02:06;4.20;;;1.00;;
80836;SDS011;70251;60.008;30.404;2024-01-10T14:04:32;5.05;;;1.27;;
80836;SDS011;70251;60.008;30.404;2024-01-10T14:06:58;5.50;;;1.73;;
80836;SDS011;70251;60.008;30.404;2024-01-10T14:09:24;4.32;;;1.15;;
80836;SDS011;70251;60.008;30.404;2024-01-10T14:11:49;3.80;;;0.80;;
80836;SDS011;70251;60.008;30.404;2024-01-10T14:14:18;3.53;;;0.70;;
80836;SDS011;70251;60.008;30.404;2024-01-10T14:16:43;3.00;;;0.70;;
80836;SDS011;70251;60.008;30.404;2024-01-10T14:19:09;4.10;;;0.93;;
80836;SDS011;70251;60.008;30.404;2024-01-10T14:21:35;2.93;;;0.70;;
80836;SDS011;70251;60.008;30.404;2024-01-10T14:24:00;4.22;;;0.90;;
80836;SDS011;70251;60.008;30.404;2024-01-10T14:26:26;3.47;;;0.90;;
80836;SDS011;70251;60.008;30.404;2024-01-10T14:28:52;2.10;;;0.40;;
80836;SDS011;70251;60.008;30.404;2024-01-10T14:31:21;0.88;;;0.10;;
80836;SDS011;70251;60.008;30.404;2024-01-10T14:33:47;1.10;;;0.20;;
80836;SDS011;70251;60.008;30.404;2024-01-10T14:36:13;1.17;;;0.20;;
80836;SDS011;70251;60.008;30.404;2024-01-10T14:38:40;0.70;;;0.10;;
80836;SDS011;70251;60.008;30.404;2024-01-10T14:41:06;1.55;;;0.22;;
80836;SDS011;70251;60.008;30.404;2024-01-10T14:43:37;2.42;;;0.40;;
80836;SDS011;70251;60.008;30.404;2024-01-10T14:46:03;2.42;;;0.35;;